Itanhem, Brazil
Current Conditions -  °F | °C
As of 4:00 PM on Friday 21 Nov 2014 (Local Time) from SBTC Reporting Station
Light Rain Light Rain  
Wind Chill: 79°   Ceiling: 6000
Heat Index: 82°   Visibility: 1.8mi
Dew Point: 73°   Wind: 5mph
Humidity: 83%   Direction: 60°ENE
Pressure: NA   Gusts: NA
Location:  17.17°S, 40.33°W
Report Text: SBTC 211900Z 06004KT 3000 -RA BR FEW008 SCT015 OVC060 26/23 Q1014
Loading
Personal Weather Stations






























Interactive Weather Map New forecast layout! Learn more

10-Day Weather Forecast

Advertisements
Track Severe Weather on mobile